Corydon, IN

1:02 PM EST on December 09, 2016 (GMT -0500)
k9set Harrison county skywarn | | Change Station

Elev 649 ft 38.21 °N, 86.11 °W | Updated 7 seconds ago

Overcast
Overcast
25.4 °F
Feels Like 25 °F
N
3.0
Wind Variable Wind from WNW
Gusts 8.0 mph

Today
High -- | Low -- °F
--% Chance of Precip.
Yesterday
High -- | Low -- °F
Precip. -- in
Pressure 30.62 in
Visibility 9.0 miles
Clouds Overcast 2700 ft
Windchill 25 °F
Dew Point 16 °F
Humidity 67%
Rainfall 0.00 in
Snow Depth Not available.
7:49 AM 5:24 PM
Waxing Gibbous, 76% visible
METAR KSDF 091656Z 29005KT 9SM -SN OVC027 M03/M11 A3060 RMK AO2 SLP368 P0000 T10331111
Pressure 30.62 in
Visibility 9.0 miles
Clouds Overcast 2700 ft
Windchill 25 °F
Dew Point 16 °F
Humidity 67%
Rainfall 0.00 in
Snow Depth Not available.
7:49 AM 5:24 PM
Waxing Gibbous, 76% visible
METAR KSDF 091656Z 29005KT 9SM -SN OVC027 M03/M11 A3060 RMK AO2 SLP368 P0000 T10331111

10-Day Weather Forecast

Almanac

Astronomy

Dec. 09, 2016 Rise Set
Actual Time
Civil Twilight
Nautical Twilight
Astronomical Twilight
Moon
Length of Visible Light
Length of Day
Tomorrow will be .
, % of the Moon is Illuminated

Today's Extremes

State Highs State Lows

Community

WunderPhotos

Upload Photos

1,956,499 photos uploaded!

WunderBlog® & News

Nearby

Air Quality

  Air Quality AQ Index Pollutant
Not available.

Snow Depth

Station Depth Elevation

Earthquake Activity

City Distance Mag. Time & Date
Minimum magnitude displayed is 2.5.

Coastal Water Temperatures

Place Temperature

Stations

Nearby Weather Stations

Station Location Temp. Windchill Dew Point Humidity Wind Precip. Elev Updated Type
                   

Watches & Warnings

There are currently no watches in effect.